Nadeshiko_maru — JD2502 — position and weather

sailwx.info

Track history (hours):
 
Tides and Currents Weather Stations Pressure Air Temp Water Temp Dewpoint Dewpoint Depression Visibility Wind Speed Wind Dir Waves Ship Positions

Nadeshiko_maru

Last reported at 2018-Feb-20 15:00 UTC. Time now 2018-Feb-20 15:34 UTC.
Position N 33°54' E 131°11'.

Length 69 m; draft 4.5 m.

Type: Tanker. MMSI: 431000393.

Date/timePositionNaut miles runAvg speedWind from/ knotsBaromVisibWave heightAir tempDewpointWater temp
2018-Feb-20 15:00N 33°54' E 131°11'0 0.0
2018-Feb-20 14:30N 33°54' E 131°11'0 0.0
2018-Feb-20 14:00N 33°54' E 131°11'0 0.0
2018-Feb-20 13:30N 33°54' E 131°11'0 0.0
2018-Feb-20 13:00N 33°54' E 131°11'0 0.0
2018-Feb-20 12:30N 33°54' E 131°11'0 0.0
2018-Feb-20 12:00N 33°54' E 131°11'0 0.0
2018-Feb-20 11:30N 33°54' E 131°11'0 0.0
2018-Feb-20 11:00N 33°54' E 131°11'0 0.0
2018-Feb-20 10:30N 33°54' E 131°11'0 0.1
2018-Feb-20 10:00N 33°54' E 131°11'0 0.1
2018-Feb-20 09:30N 33°54' E 131°11'0 0.0
2018-Feb-20 09:00N 33°54' E 131°11'0 0.0
2018-Feb-20 08:29N 33°54' E 131°11'3 6.1
2018-Feb-20 08:00N 33°54' E 131°08'611.6
2018-Feb-20 07:30N 33°57' E 131°02'5 9.9
2018-Feb-20 07:00N 33°56' E 130°56'3 7.0
2018-Feb-20 06:30N 33°55' E 130°52'0 0.5
2018-Feb-20 06:00N 33°55' E 130°52'0 0.0
2018-Feb-20 05:30N 33°55' E 130°52'0 0.0
2018-Feb-20 05:00N 33°55' E 130°52'0 0.0
2018-Feb-20 04:30N 33°55' E 130°52'0 0.0
2018-Feb-20 04:00N 33°55' E 130°52'2 3.6
2018-Feb-20 03:30N 33°55' E 130°54'612.3
2018-Feb-20 03:00N 33°59' E 130°60'4 8.9
2018-Feb-20 02:30N 33°57' E 131°05'3 6.0
2018-Feb-20 02:00N 33°55' E 131°08'3 5.9
2018-Feb-20 01:30N 33°55' E 131°11'0 0.0
2018-Feb-20 00:59N 33°55' E 131°11'1 3.1
2018-Feb-20 00:30N 33°56' E 131°11'0 0.2
2018-Feb-19 23:59N 33°56' E 131°11'0 0.0
2018-Feb-19 23:31N 33°56' E 131°11'0 0.0
2018-Feb-19 23:00N 33°56' E 131°11'0 0.0
2018-Feb-19 22:30N 33°56' E 131°11'2 3.0
2018-Feb-19 22:00N 33°54' E 131°11'0 0.2
2018-Feb-19 21:30N 33°54' E 131°11'0 0.1
2018-Feb-19 21:00N 33°54' E 131°11'0 0.1
2018-Feb-19 20:30N 33°54' E 131°11'0 0.0
2018-Feb-19 20:00N 33°54' E 131°11'0 0.0
2018-Feb-19 19:30N 33°54' E 131°11'0 0.0
2018-Feb-19 19:01N 33°54' E 131°11'0 0.0
2018-Feb-19 18:30N 33°54' E 131°11'0 0.0
2018-Feb-19 18:01N 33°54' E 131°11'0 0.0
2018-Feb-19 17:30N 33°54' E 131°11'0 0.0
2018-Feb-19 17:00N 33°54' E 131°11'0 0.0
2018-Feb-19 16:30N 33°54' E 131°11'0 0.0
2018-Feb-19 16:00N 33°54' E 131°11'0 0.1
2018-Feb-19 15:30N 33°54' E 131°11'0 0.1
2018-Feb-19 15:00N 33°54' E 131°11'0 0.0
2018-Feb-19 14:30N 33°54' E 131°11'0 0.0
2018-Feb-19 14:00N 33°54' E 131°11'0 0.0
2018-Feb-19 13:30N 33°54' E 131°11'0 0.0
2018-Feb-19 13:00N 33°54' E 131°11'0 0.0
2018-Feb-19 12:30N 33°54' E 131°11'0 0.0
2018-Feb-19 12:00N 33°54' E 131°11'0 0.0
2018-Feb-19 11:30N 33°54' E 131°11'0 0.0
2018-Feb-19 11:00N 33°54' E 131°11'0 0.0
2018-Feb-19 10:30N 33°54' E 131°11'0 0.0
2018-Feb-19 10:01N 33°54' E 131°11'0 0.0
2018-Feb-19 09:30N 33°54' E 131°11'0 0.0
2018-Feb-19 09:00N 33°54' E 131°11'2 4.9
2018-Feb-19 08:30N 33°55' E 131°08'611.5
2018-Feb-19 08:00N 33°58' E 131°02'510.7
2018-Feb-19 07:30N 33°56' E 130°56'4 8.8
2018-Feb-19 07:00N 33°57' E 130°51'611.1
2018-Feb-19 06:30N 33°58' E 130°44'611.3
2018-Feb-19 06:00N 33°57' E 130°38'611.2
2018-Feb-19 05:30N 33°57' E 130°31'611.8
2018-Feb-19 05:00N 33°56' E 130°24'611.3
2018-Feb-19 04:30N 33°52' E 130°19'611.2
2018-Feb-19 04:00N 33°48' E 130°14'511.0
2018-Feb-19 03:30N 33°44' E 130°09'611.0
2018-Feb-19 03:00N 33°39' E 130°05'611.0
2018-Feb-19 02:29N 33°35' E 130°02'4 0.5
2018-Feb-18 17:36N 33°31' E 129°59'110.5
2018-Feb-18 17:27N 33°32' E 130°00'510.1
2018-Feb-18 17:00N 33°36' E 130°03'5 9.9
2018-Feb-18 16:28N 33°41' E 130°06'4 9.8
2018-Feb-18 16:00N 33°44' E 130°10'510.0
2018-Feb-18 15:29N 33°48' E 130°14'510.1
2018-Feb-18 15:00N 33°51' E 130°18'510.2
2018-Feb-18 14:30N 33°55' E 130°23'5 9.7
2018-Feb-18 14:00N 33°56' E 130°28'510.4
2018-Feb-18 13:30N 33°57' E 130°35'510.7
2018-Feb-18 13:00N 33°58' E 130°41'510.7
2018-Feb-18 12:30N 33°58' E 130°47'510.4
2018-Feb-18 12:00N 33°56' E 130°53'4 8.3
2018-Feb-18 11:30N 33°58' E 130°57'5 9.7
2018-Feb-18 11:00N 33°58' E 131°03'510.9
2018-Feb-18 10:30N 33°55' E 131°09'2 4.3
2018-Feb-18 10:00N 33°56' E 131°11'0 0.0
2018-Feb-18 09:30N 33°56' E 131°11'0 0.0
2018-Feb-18 09:00N 33°56' E 131°11'0 0.0
2018-Feb-18 08:30N 33°56' E 131°11'0 0.0
2018-Feb-18 08:00N 33°56' E 131°11'0 0.0
2018-Feb-18 07:30N 33°56' E 131°11'1 2.1
2018-Feb-18 07:00N 33°55' E 131°12'510.1
2018-Feb-18 06:30N 33°56' E 131°06'611.4
2018-Feb-18 06:00N 33°58' E 130°59'510.9
2018-Feb-18 05:30N 33°54' E 130°55'510.1
2018-Feb-18 05:00N 33°58' E 130°50'611.3
2018-Feb-18 04:30N 33°58' E 130°44'611.4
2018-Feb-18 04:00N 33°57' E 130°37'611.1
2018-Feb-18 03:30N 33°56' E 130°30'611.7
2018-Feb-18 03:00N 33°51' E 130°26'611.5
2018-Feb-18 02:30N 33°47' E 130°21'611.2
2018-Feb-18 02:00N 33°43' E 130°17'5 9.2
2018-Feb-18 01:30N 33°39' E 130°19'2 3.6
2018-Feb-18 01:00N 33°39' E 130°21'0 0.0
2018-Feb-18 00:30N 33°39' E 130°21'0 0.0
2018-Feb-18 00:00N 33°39' E 130°21'0 0.0
2018-Feb-17 23:30N 33°39' E 130°21'0 0.0
2018-Feb-17 23:00N 33°39' E 130°21'0 0.9
2018-Feb-17 22:30N 33°38' E 130°21'1 1.3
2018-Feb-17 22:00N 33°38' E 130°20'0 0.0
2018-Feb-17 21:30N 33°38' E 130°20'0 0.0
2018-Feb-17 21:00N 33°38' E 130°20'0 0.0
2018-Feb-17 20:30N 33°38' E 130°20'0 0.0
2018-Feb-17 20:00N 33°38' E 130°20'0 0.1
2018-Feb-17 19:29N 33°38' E 130°20'0 0.1
2018-Feb-17 19:00N 33°38' E 130°20'0 0.1
2018-Feb-17 18:30N 33°38' E 130°20'0 0.1
2018-Feb-17 18:00N 33°38' E 130°20'0 0.0
2018-Feb-17 17:30N 33°38' E 130°20'0 0.0
2018-Feb-17 17:00N 33°38' E 130°20'0 0.0
2018-Feb-17 16:30N 33°38' E 130°20'0 0.0
2018-Feb-17 16:00N 33°38' E 130°20'0 0.0
2018-Feb-17 15:30N 33°38' E 130°20'0 0.0
2018-Feb-17 14:59N 33°38' E 130°20'0 0.0
2018-Feb-17 14:30N 33°38' E 130°20'0 0.0
2018-Feb-17 14:00N 33°38' E 130°20'0 0.0
2018-Feb-17 13:30N 33°38' E 130°20'0 0.1
2018-Feb-17 13:00N 33°38' E 130°21'0 0.0
2018-Feb-17 12:30N 33°38' E 130°21'0 0.0
2018-Feb-17 12:00N 33°38' E 130°21'0 0.0
2018-Feb-17 11:30N 33°38' E 130°21'0 0.0
2018-Feb-17 11:00N 33°38' E 130°21'0 0.0
2018-Feb-17 10:30N 33°38' E 130°21'0 0.1
2018-Feb-17 10:00N 33°38' E 130°20'4 7.5
2018-Feb-17 09:31N 33°40' E 130°17'5 9.4
2018-Feb-17 09:00N 33°45' E 130°17'510.3
2018-Feb-17 08:30N 33°49' E 130°21'510.3
2018-Feb-17 08:00N 33°52' E 130°26'510.0
2018-Feb-17 07:30N 33°56' E 130°29'5 9.2
2018-Feb-17 07:00N 33°57' E 130°35'4 9.0
2018-Feb-17 06:30N 33°58' E 130°40'4 9.0
2018-Feb-17 06:00N 33°58' E 130°45'4 9.0
2018-Feb-17 05:31N 33°58' E 130°51'1 2.4
2018-Feb-17 05:00N 33°58' E 130°52'0 0.0
2018-Feb-17 04:30N 33°58' E 130°52'0 0.0
2018-Feb-17 04:00N 33°58' E 130°52'0 0.0
2018-Feb-17 03:30N 33°58' E 130°52'0 0.0
2018-Feb-17 03:00N 33°58' E 130°52'0 0.0
2018-Feb-17 02:30N 33°58' E 130°52'0 0.0
2018-Feb-17 02:00N 33°58' E 130°52'0 0.8
2018-Feb-17 01:31N 33°59' E 130°52'1 2.2
2018-Feb-17 01:00N 33°58' E 130°53'0 0.0
2018-Feb-17 00:30N 33°58' E 130°53'0 0.0
2018-Feb-17 00:00N 33°58' E 130°53'3 5.3
2018-Feb-16 23:30N 33°58' E 130°50'510.6
2018-Feb-16 23:00N 33°58' E 130°44'510.2
2018-Feb-16 22:30N 33°57' E 130°38'510.1
2018-Feb-16 22:00N 33°56' E 130°32'4 8.5
2018-Feb-16 21:30N 33°53' E 130°28'5 9.7
2018-Feb-16 21:00N 33°50' E 130°24'5 9.9
2018-Feb-16 20:30N 33°47' E 130°19'510.3
2018-Feb-16 20:00N 33°44' E 130°14'510.4
2018-Feb-16 19:30N 33°40' E 130°10'510.5
2018-Feb-16 19:00N 33°37' E 130°05'8 0.3
2018-Feb-15 09:55N 33°44' E 130°01'710.7
2018-Feb-15 09:15N 33°48' E 130°08'310.8
2018-Feb-15 08:59N 33°50' E 130°11'511.0
2018-Feb-15 08:30N 33°52' E 130°17'510.9
2018-Feb-15 08:01N 33°55' E 130°23'610.9
2018-Feb-15 07:30N 33°57' E 130°29'510.6
2018-Feb-15 07:01N 33°57' E 130°35'510.3
2018-Feb-15 06:30N 33°58' E 130°41'5 9.9
2018-Feb-15 06:00N 33°58' E 130°47'5 9.2
2018-Feb-15 05:30N 33°56' E 130°52'3 6.0
2018-Feb-15 05:00N 33°56' E 130°56'5 9.3
2018-Feb-15 04:30N 33°59' E 131°00'510.1
2018-Feb-15 04:00N 33°56' E 131°06'5 9.5
2018-Feb-15 03:30N 33°55' E 131°11'1 2.6
2018-Feb-15 03:01N 33°56' E 131°11'0 0.0
2018-Feb-15 02:30N 33°56' E 131°11'0 0.0
2018-Feb-15 02:00N 33°56' E 131°11'0 0.0
2018-Feb-15 01:31N 33°56' E 131°11'0 0.0
2018-Feb-15 01:00N 33°56' E 131°11'0 0.0
2018-Feb-15 00:31N 33°56' E 131°11'0 0.0
2018-Feb-15 00:01N 33°56' E 131°11'0 0.0
2018-Feb-14 23:31N 33°56' E 131°11'0 0.0
2018-Feb-14 23:01N 33°56' E 131°11'1 3.0
2018-Feb-14 22:30N 33°55' E 131°10'510.1
2018-Feb-14 22:01N 33°57' E 131°05'510.0
2018-Feb-14 21:31N 33°58' E 130°59'611.2
2018-Feb-14 21:01N 33°54' E 130°54'611.3
2018-Feb-14 20:31N 33°58' E 130°49'510.9
2018-Feb-14 20:01N 33°58' E 130°42'510.9
2018-Feb-14 19:31N 33°57' E 130°36'510.6
2018-Feb-14 19:01N 33°57' E 130°30'510.3
2018-Feb-14 18:30N 33°55' E 130°24'510.7
2018-Feb-14 18:01N 33°52' E 130°18'611.1
2018-Feb-14 17:30N 33°49' E 130°12'611.2
2018-Feb-14 17:00N 33°47' E 130°06'611.3
2018-Feb-14 16:30N 33°44' E 130°01'8 0.2
2018-Feb-13 04:47N 33°38' E 130°07'2 8.8
2018-Feb-13 04:30N 33°40' E 130°09'4 8.8
2018-Feb-13 04:00N 33°43' E 130°13'4 8.1
2018-Feb-13 03:31N 33°45' E 130°17'4 8.4
2018-Feb-13 03:00N 33°48' E 130°21'4 8.5
2018-Feb-13 02:31N 33°51' E 130°24'4 8.2
2018-Feb-13 02:01N 33°54' E 130°28'3 6.5
2018-Feb-13 01:30N 33°56' E 130°30'4 7.6
2018-Feb-13 01:01N 33°57' E 130°35'4 7.5
2018-Feb-13 00:31N 33°57' E 130°39'4 7.2
2018-Feb-13 00:01N 33°58' E 130°43'4 7.9
2018-Feb-12 23:31N 33°58' E 130°48'4 8.8
2018-Feb-12 23:00N 33°56' E 130°53'4 8.8
2018-Feb-12 22:30N 33°58' E 130°58'5 9.8
2018-Feb-12 22:00N 33°58' E 131°03'0 0.3
2018-Feb-12 21:30N 33°58' E 131°04'0 0.0
2018-Feb-12 21:00N 33°58' E 131°04'0 0.0
2018-Feb-12 20:30N 33°58' E 131°04'0 0.0
2018-Feb-12 20:00N 33°58' E 131°04'0 0.0
2018-Feb-12 19:30N 33°58' E 131°04'0 0.0
2018-Feb-12 19:00N 33°58' E 131°04'0 0.0
2018-Feb-12 18:30N 33°58' E 131°04'0 0.0
2018-Feb-12 18:00N 33°58' E 131°04'0 0.0
2018-Feb-12 17:30N 33°58' E 131°04'0 0.0
2018-Feb-12 17:00N 33°58' E 131°04'0 0.0
2018-Feb-12 16:30N 33°58' E 131°04'0 0.0
2018-Feb-12 16:00N 33°58' E 131°04'0 0.0
2018-Feb-12 15:30N 33°58' E 131°04'0 0.0
2018-Feb-12 15:00N 33°58' E 131°04'0 0.0
2018-Feb-12 14:30N 33°58' E 131°04'0 0.0
2018-Feb-12 14:00N 33°58' E 131°04'0 0.0
2018-Feb-12 13:30N 33°58' E 131°04'0 0.0
2018-Feb-12 13:00N 33°58' E 131°04'0 0.0
2018-Feb-12 12:30N 33°58' E 131°04'0 0.0
2018-Feb-12 12:00N 33°58' E 131°04'0 0.0
2018-Feb-12 11:30N 33°58' E 131°04'0 0.0
2018-Feb-12 10:59N 33°58' E 131°04'0 0.0
2018-Feb-12 10:30N 33°58' E 131°04'0 0.0
2018-Feb-12 10:00N 33°58' E 131°04'0 0.0
2018-Feb-12 09:30N 33°58' E 131°04'0 0.0
2018-Feb-12 09:00N 33°58' E 131°04'0 0.0
2018-Feb-12 08:30N 33°58' E 131°04'0 0.0
2018-Feb-12 08:00N 33°58' E 131°04'0 0.0
2018-Feb-12 07:30N 33°58' E 131°04'0 0.0
2018-Feb-12 07:00N 33°58' E 131°04'0 0.0
2018-Feb-12 06:30N 33°58' E 131°04'0 0.0
2018-Feb-12 06:00N 33°58' E 131°04'0 0.0
2018-Feb-12 05:30N 33°58' E 131°04'0 0.0
2018-Feb-12 05:00N 33°58' E 131°04'0 0.0
2018-Feb-12 04:30N 33°58' E 131°04'0 0.0
2018-Feb-12 04:00N 33°58' E 131°04'0 0.0
2018-Feb-12 03:30N 33°58' E 131°04'0 0.0
2018-Feb-12 03:00N 33°58' E 131°04'0 0.0
2018-Feb-12 02:30N 33°58' E 131°04'2 4.8
2018-Feb-12 02:00N 33°57' E 131°06'4 8.5
2018-Feb-12 01:30N 33°55' E 131°10'2 3.0
2018-Feb-12 01:00N 33°56' E 131°11'0 0.0
2018-Feb-12 00:30N 33°56' E 131°11'0 0.0
2018-Feb-12 00:00N 33°56' E 131°11'0 0.0
2018-Feb-11 23:30N 33°56' E 131°11'0 0.0
2018-Feb-11 22:59N 33°56' E 131°11'0 0.0
2018-Feb-11 22:30N 33°56' E 131°11'1 3.0
2018-Feb-11 22:00N 33°55' E 131°11'4 7.0
2018-Feb-11 21:30N 33°56' E 131°07'510.0
2018-Feb-11 21:00N 33°58' E 131°02'4 9.0
2018-Feb-11 20:30N 33°57' E 130°57'1 1.8
2018-Feb-11 20:00N 33°57' E 130°56'0 0.0
2018-Feb-11 19:30N 33°57' E 130°56'0 0.0
2018-Feb-11 19:00N 33°57' E 130°56'0 0.0
2018-Feb-11 18:30N 33°57' E 130°56'0 0.0
2018-Feb-11 18:00N 33°57' E 130°56'0 0.0
2018-Feb-11 17:30N 33°57' E 130°56'0 0.0
2018-Feb-11 17:00N 33°57' E 130°56'0 0.0
2018-Feb-11 16:30N 33°57' E 130°56'0 0.0
2018-Feb-11 16:00N 33°57' E 130°56'0 0.0
2018-Feb-11 15:30N 33°57' E 130°56'0 0.0
2018-Feb-11 15:00N 33°57' E 130°56'0 0.0
2018-Feb-11 14:30N 33°57' E 130°56'0 0.0
2018-Feb-11 14:00N 33°57' E 130°56'0 0.0
2018-Feb-11 13:30N 33°57' E 130°56'0 0.0
2018-Feb-11 13:00N 33°57' E 130°56'0 0.0
2018-Feb-11 12:30N 33°57' E 130°56'0 0.0
2018-Feb-11 12:00N 33°57' E 130°56'0 0.0
2018-Feb-11 11:30N 33°57' E 130°56'0 0.0
2018-Feb-11 11:00N 33°57' E 130°56'0 0.0
2018-Feb-11 10:30N 33°57' E 130°56'0 0.0
2018-Feb-11 10:00N 33°57' E 130°56'0 0.0
2018-Feb-11 09:30N 33°57' E 130°56'0 0.0
2018-Feb-11 09:00N 33°57' E 130°56'0 0.0
2018-Feb-11 08:30N 33°57' E 130°56'0 0.0
2018-Feb-11 08:00N 33°57' E 130°56'0 0.0
2018-Feb-11 07:30N 33°57' E 130°56'0 0.0
2018-Feb-11 07:00N 33°57' E 130°56'0 0.0
2018-Feb-11 06:30N 33°57' E 130°56'0 0.0
2018-Feb-11 06:00N 33°57' E 130°56'0 0.0
2018-Feb-11 05:30N 33°57' E 130°56'0 0.0
2018-Feb-11 05:00N 33°57' E 130°56'0 0.0
2018-Feb-11 04:30N 33°57' E 130°56'0 0.0
2018-Feb-11 04:00N 33°57' E 130°56'0 0.0
2018-Feb-11 03:30N 33°57' E 130°56'0 0.0
2018-Feb-11 03:00N 33°57' E 130°56'0 0.0
2018-Feb-11 02:30N 33°57' E 130°56'0 0.0
2018-Feb-11 02:00N 33°57' E 130°56'0 0.0
2018-Feb-11 01:30N 33°57' E 130°56'0 0.0
2018-Feb-11 01:00N 33°57' E 130°56'0 0.0
2018-Feb-11 00:30N 33°57' E 130°56'0 0.0
2018-Feb-11 00:00N 33°57' E 130°56'0 0.0
2018-Feb-10 23:30N 33°57' E 130°56'0 0.0
2018-Feb-10 23:00N 33°57' E 130°56'0 0.0
2018-Feb-10 22:30N 33°57' E 130°56'0 0.0
2018-Feb-10 22:00N 33°57' E 130°56'4 7.4
2018-Feb-10 21:30N 33°59' E 130°59'4 7.8
2018-Feb-10 21:00N 33°58' E 131°04'0 0.1
2018-Feb-10 20:30N 33°58' E 131°04'0 0.0
2018-Feb-10 20:01N 33°58' E 131°04'0 0.0
2018-Feb-10 19:30N 33°58' E 131°04'0 0.0
2018-Feb-10 19:01N 33°58' E 131°04'0 0.0
2018-Feb-10 18:30N 33°58' E 131°04'0 0.0
2018-Feb-10 18:00N 33°58' E 131°04'0 0.0
2018-Feb-10 17:30N 33°58' E 131°04'0 0.0
2018-Feb-10 17:00N 33°58' E 131°04'0 0.0
2018-Feb-10 16:30N 33°58' E 131°04'0 0.0
2018-Feb-10 16:00N 33°58' E 131°04'0 0.0
2018-Feb-10 15:30N 33°58' E 131°04'  
Track history (hours):
 
Tides and Currents Weather Stations Pressure Air Temp Water Temp Dewpoint Dewpoint Depression Visibility Wind Speed Wind Dir Waves Ship Positions

Nadeshiko_maru

Last reported at 2018-Feb-20 15:00 UTC. Time now 2018-Feb-20 15:34 UTC.
Position N 33°54' E 131°11'.

Length 69 m; draft 4.5 m.

Type: Tanker. MMSI: 431000393.

Date/timePositionNaut miles runAvg speedWind from/ knotsBaromVisibWave heightAir tempDewpointWater temp
2018-Feb-20 15:00N 33°54' E 131°11'0 0.0
2018-Feb-20 14:30N 33°54' E 131°11'0 0.0
2018-Feb-20 14:00N 33°54' E 131°11'0 0.0
2018-Feb-20 13:30N 33°54' E 131°11'0 0.0
2018-Feb-20 13:00N 33°54' E 131°11'0 0.0
2018-Feb-20 12:30N 33°54' E 131°11'0 0.0
2018-Feb-20 12:00N 33°54' E 131°11'0 0.0
2018-Feb-20 11:30N 33°54' E 131°11'0 0.0
2018-Feb-20 11:00N 33°54' E 131°11'0 0.0
2018-Feb-20 10:30N 33°54' E 131°11'0 0.1
2018-Feb-20 10:00N 33°54' E 131°11'0 0.1
2018-Feb-20 09:30N 33°54' E 131°11'0 0.0
2018-Feb-20 09:00N 33°54' E 131°11'0 0.0
2018-Feb-20 08:29N 33°54' E 131°11'3 6.1
2018-Feb-20 08:00N 33°54' E 131°08'611.6
2018-Feb-20 07:30N 33°57' E 131°02'5 9.9
2018-Feb-20 07:00N 33°56' E 130°56'3 7.0
2018-Feb-20 06:30N 33°55' E 130°52'0 0.5
2018-Feb-20 06:00N 33°55' E 130°52'0 0.0
2018-Feb-20 05:30N 33°55' E 130°52'0 0.0
2018-Feb-20 05:00N 33°55' E 130°52'0 0.0
2018-Feb-20 04:30N 33°55' E 130°52'0 0.0
2018-Feb-20 04:00N 33°55' E 130°52'2 3.6
2018-Feb-20 03:30N 33°55' E 130°54'612.3
2018-Feb-20 03:00N 33°59' E 130°60'4 8.9
2018-Feb-20 02:30N 33°57' E 131°05'3 6.0
2018-Feb-20 02:00N 33°55' E 131°08'3 5.9
2018-Feb-20 01:30N 33°55' E 131°11'0 0.0
2018-Feb-20 00:59N 33°55' E 131°11'1 3.1
2018-Feb-20 00:30N 33°56' E 131°11'0 0.2
2018-Feb-19 23:59N 33°56' E 131°11'0 0.0
2018-Feb-19 23:31N 33°56' E 131°11'0 0.0
2018-Feb-19 23:00N 33°56' E 131°11'0 0.0
2018-Feb-19 22:30N 33°56' E 131°11'2 3.0
2018-Feb-19 22:00N 33°54' E 131°11'0 0.2
2018-Feb-19 21:30N 33°54' E 131°11'0 0.1
2018-Feb-19 21:00N 33°54' E 131°11'0 0.1
2018-Feb-19 20:30N 33°54' E 131°11'0 0.0
2018-Feb-19 20:00N 33°54' E 131°11'0 0.0
2018-Feb-19 19:30N 33°54' E 131°11'0 0.0
2018-Feb-19 19:01N 33°54' E 131°11'0 0.0
2018-Feb-19 18:30N 33°54' E 131°11'0 0.0
2018-Feb-19 18:01N 33°54' E 131°11'0 0.0
2018-Feb-19 17:30N 33°54' E 131°11'0 0.0
2018-Feb-19 17:00N 33°54' E 131°11'0 0.0
2018-Feb-19 16:30N 33°54' E 131°11'0 0.0
2018-Feb-19 16:00N 33°54' E 131°11'0 0.1
2018-Feb-19 15:30N 33°54' E 131°11'0 0.1
2018-Feb-19 15:00N 33°54' E 131°11'0 0.0
2018-Feb-19 14:30N 33°54' E 131°11'0 0.0
2018-Feb-19 14:00N 33°54' E 131°11'0 0.0
2018-Feb-19 13:30N 33°54' E 131°11'0 0.0
2018-Feb-19 13:00N 33°54' E 131°11'0 0.0
2018-Feb-19 12:30N 33°54' E 131°11'0 0.0
2018-Feb-19 12:00N 33°54' E 131°11'0 0.0
2018-Feb-19 11:30N 33°54' E 131°11'0 0.0
2018-Feb-19 11:00N 33°54' E 131°11'0 0.0
2018-Feb-19 10:30N 33°54' E 131°11'0 0.0
2018-Feb-19 10:01N 33°54' E 131°11'0 0.0
2018-Feb-19 09:30N 33°54' E 131°11'0 0.0
2018-Feb-19 09:00N 33°54' E 131°11'2 4.9
2018-Feb-19 08:30N 33°55' E 131°08'611.5
2018-Feb-19 08:00N 33°58' E 131°02'510.7
2018-Feb-19 07:30N 33°56' E 130°56'4 8.8
2018-Feb-19 07:00N 33°57' E 130°51'611.1
2018-Feb-19 06:30N 33°58' E 130°44'611.3
2018-Feb-19 06:00N 33°57' E 130°38'611.2
2018-Feb-19 05:30N 33°57' E 130°31'611.8
2018-Feb-19 05:00N 33°56' E 130°24'611.3
2018-Feb-19 04:30N 33°52' E 130°19'611.2
2018-Feb-19 04:00N 33°48' E 130°14'511.0
2018-Feb-19 03:30N 33°44' E 130°09'611.0
2018-Feb-19 03:00N 33°39' E 130°05'611.0
2018-Feb-19 02:29N 33°35' E 130°02'4 0.5
2018-Feb-18 17:36N 33°31' E 129°59'110.5
2018-Feb-18 17:27N 33°32' E 130°00'510.1
2018-Feb-18 17:00N 33°36' E 130°03'5 9.9
2018-Feb-18 16:28N 33°41' E 130°06'4 9.8
2018-Feb-18 16:00N 33°44' E 130°10'510.0
2018-Feb-18 15:29N 33°48' E 130°14'510.1
2018-Feb-18 15:00N 33°51' E 130°18'510.2
2018-Feb-18 14:30N 33°55' E 130°23'5 9.7
2018-Feb-18 14:00N 33°56' E 130°28'510.4
2018-Feb-18 13:30N 33°57' E 130°35'510.7
2018-Feb-18 13:00N 33°58' E 130°41'510.7
2018-Feb-18 12:30N 33°58' E 130°47'510.4
2018-Feb-18 12:00N 33°56' E 130°53'4 8.3
2018-Feb-18 11:30N 33°58' E 130°57'5 9.7
2018-Feb-18 11:00N 33°58' E 131°03'510.9
2018-Feb-18 10:30N 33°55' E 131°09'2 4.3
2018-Feb-18 10:00N 33°56' E 131°11'0 0.0
2018-Feb-18 09:30N 33°56' E 131°11'0 0.0
2018-Feb-18 09:00N 33°56' E 131°11'0 0.0
2018-Feb-18 08:30N 33°56' E 131°11'0 0.0
2018-Feb-18 08:00N 33°56' E 131°11'0 0.0
2018-Feb-18 07:30N 33°56' E 131°11'1 2.1
2018-Feb-18 07:00N 33°55' E 131°12'510.1
2018-Feb-18 06:30N 33°56' E 131°06'611.4
2018-Feb-18 06:00N 33°58' E 130°59'510.9
2018-Feb-18 05:30N 33°54' E 130°55'510.1
2018-Feb-18 05:00N 33°58' E 130°50'611.3
2018-Feb-18 04:30N 33°58' E 130°44'611.4
2018-Feb-18 04:00N 33°57' E 130°37'611.1
2018-Feb-18 03:30N 33°56' E 130°30'611.7
2018-Feb-18 03:00N 33°51' E 130°26'611.5
2018-Feb-18 02:30N 33°47' E 130°21'611.2
2018-Feb-18 02:00N 33°43' E 130°17'5 9.2
2018-Feb-18 01:30N 33°39' E 130°19'2 3.6
2018-Feb-18 01:00N 33°39' E 130°21'0 0.0
2018-Feb-18 00:30N 33°39' E 130°21'0 0.0
2018-Feb-18 00:00N 33°39' E 130°21'0 0.0
2018-Feb-17 23:30N 33°39' E 130°21'0 0.0
2018-Feb-17 23:00N 33°39' E 130°21'0 0.9
2018-Feb-17 22:30N 33°38' E 130°21'1 1.3
2018-Feb-17 22:00N 33°38' E 130°20'0 0.0
2018-Feb-17 21:30N 33°38' E 130°20'0 0.0
2018-Feb-17 21:00N 33°38' E 130°20'0 0.0
2018-Feb-17 20:30N 33°38' E 130°20'0 0.0
2018-Feb-17 20:00N 33°38' E 130°20'0 0.1
2018-Feb-17 19:29N 33°38' E 130°20'0 0.1
2018-Feb-17 19:00N 33°38' E 130°20'0 0.1
2018-Feb-17 18:30N 33°38' E 130°20'0 0.1
2018-Feb-17 18:00N 33°38' E 130°20'0 0.0
2018-Feb-17 17:30N 33°38' E 130°20'0 0.0
2018-Feb-17 17:00N 33°38' E 130°20'0 0.0
2018-Feb-17 16:30N 33°38' E 130°20'0 0.0
2018-Feb-17 16:00N 33°38' E 130°20'0 0.0
2018-Feb-17 15:30N 33°38' E 130°20'0 0.0
2018-Feb-17 14:59N 33°38' E 130°20'0 0.0
2018-Feb-17 14:30N 33°38' E 130°20'0 0.0
2018-Feb-17 14:00N 33°38' E 130°20'0 0.0
2018-Feb-17 13:30N 33°38' E 130°20'0 0.1
2018-Feb-17 13:00N 33°38' E 130°21'0 0.0
2018-Feb-17 12:30N 33°38' E 130°21'0 0.0
2018-Feb-17 12:00N 33°38' E 130°21'0 0.0
2018-Feb-17 11:30N 33°38' E 130°21'0 0.0
2018-Feb-17 11:00N 33°38' E 130°21'0 0.0
2018-Feb-17 10:30N 33°38' E 130°21'0 0.1
2018-Feb-17 10:00N 33°38' E 130°20'4 7.5
2018-Feb-17 09:31N 33°40' E 130°17'5 9.4
2018-Feb-17 09:00N 33°45' E 130°17'510.3
2018-Feb-17 08:30N 33°49' E 130°21'510.3
2018-Feb-17 08:00N 33°52' E 130°26'510.0
2018-Feb-17 07:30N 33°56' E 130°29'5 9.2
2018-Feb-17 07:00N 33°57' E 130°35'4 9.0
2018-Feb-17 06:30N 33°58' E 130°40'4 9.0
2018-Feb-17 06:00N 33°58' E 130°45'4 9.0
2018-Feb-17 05:31N 33°58' E 130°51'1 2.4
2018-Feb-17 05:00N 33°58' E 130°52'0 0.0
2018-Feb-17 04:30N 33°58' E 130°52'0 0.0
2018-Feb-17 04:00N 33°58' E 130°52'0 0.0
2018-Feb-17 03:30N 33°58' E 130°52'0 0.0
2018-Feb-17 03:00N 33°58' E 130°52'0 0.0
2018-Feb-17 02:30N 33°58' E 130°52'0 0.0
2018-Feb-17 02:00N 33°58' E 130°52'0 0.8
2018-Feb-17 01:31N 33°59' E 130°52'1 2.2
2018-Feb-17 01:00N 33°58' E 130°53'0 0.0
2018-Feb-17 00:30N 33°58' E 130°53'0 0.0
2018-Feb-17 00:00N 33°58' E 130°53'3 5.3
2018-Feb-16 23:30N 33°58' E 130°50'510.6
2018-Feb-16 23:00N 33°58' E 130°44'510.2
2018-Feb-16 22:30N 33°57' E 130°38'510.1
2018-Feb-16 22:00N 33°56' E 130°32'4 8.5
2018-Feb-16 21:30N 33°53' E 130°28'5 9.7
2018-Feb-16 21:00N 33°50' E 130°24'5 9.9
2018-Feb-16 20:30N 33°47' E 130°19'510.3
2018-Feb-16 20:00N 33°44' E 130°14'510.4
2018-Feb-16 19:30N 33°40' E 130°10'510.5
2018-Feb-16 19:00N 33°37' E 130°05'8 0.3
2018-Feb-15 09:55N 33°44' E 130°01'710.7
2018-Feb-15 09:15N 33°48' E 130°08'310.8
2018-Feb-15 08:59N 33°50' E 130°11'511.0
2018-Feb-15 08:30N 33°52' E 130°17'510.9
2018-Feb-15 08:01N 33°55' E 130°23'610.9
2018-Feb-15 07:30N 33°57' E 130°29'510.6
2018-Feb-15 07:01N 33°57' E 130°35'510.3
2018-Feb-15 06:30N 33°58' E 130°41'5 9.9
2018-Feb-15 06:00N 33°58' E 130°47'5 9.2
2018-Feb-15 05:30N 33°56' E 130°52'3 6.0
2018-Feb-15 05:00N 33°56' E 130°56'5 9.3
2018-Feb-15 04:30N 33°59' E 131°00'510.1
2018-Feb-15 04:00N 33°56' E 131°06'5 9.5
2018-Feb-15 03:30N 33°55' E 131°11'1 2.6
2018-Feb-15 03:01N 33°56' E 131°11'0 0.0
2018-Feb-15 02:30N 33°56' E 131°11'0 0.0
2018-Feb-15 02:00N 33°56' E 131°11'0 0.0
2018-Feb-15 01:31N 33°56' E 131°11'0 0.0
2018-Feb-15 01:00N 33°56' E 131°11'0 0.0
2018-Feb-15 00:31N 33°56' E 131°11'0 0.0
2018-Feb-15 00:01N 33°56' E 131°11'0 0.0
2018-Feb-14 23:31N 33°56' E 131°11'0 0.0
2018-Feb-14 23:01N 33°56' E 131°11'1 3.0
2018-Feb-14 22:30N 33°55' E 131°10'510.1
2018-Feb-14 22:01N 33°57' E 131°05'510.0
2018-Feb-14 21:31N 33°58' E 130°59'611.2
2018-Feb-14 21:01N 33°54' E 130°54'611.3
2018-Feb-14 20:31N 33°58' E 130°49'510.9
2018-Feb-14 20:01N 33°58' E 130°42'510.9
2018-Feb-14 19:31N 33°57' E 130°36'510.6
2018-Feb-14 19:01N 33°57' E 130°30'510.3
2018-Feb-14 18:30N 33°55' E 130°24'510.7
2018-Feb-14 18:01N 33°52' E 130°18'611.1
2018-Feb-14 17:30N 33°49' E 130°12'611.2
2018-Feb-14 17:00N 33°47' E 130°06'611.3
2018-Feb-14 16:30N 33°44' E 130°01'8 0.2
2018-Feb-13 04:47N 33°38' E 130°07'2 8.8
2018-Feb-13 04:30N 33°40' E 130°09'4 8.8
2018-Feb-13 04:00N 33°43' E 130°13'4 8.1
2018-Feb-13 03:31N 33°45' E 130°17'4 8.4
2018-Feb-13 03:00N 33°48' E 130°21'4 8.5
2018-Feb-13 02:31N 33°51' E 130°24'4 8.2
2018-Feb-13 02:01N 33°54' E 130°28'3 6.5
2018-Feb-13 01:30N 33°56' E 130°30'4 7.6
2018-Feb-13 01:01N 33°57' E 130°35'4 7.5
2018-Feb-13 00:31N 33°57' E 130°39'4 7.2
2018-Feb-13 00:01N 33°58' E 130°43'4 7.9
2018-Feb-12 23:31N 33°58' E 130°48'4 8.8
2018-Feb-12 23:00N 33°56' E 130°53'4 8.8
2018-Feb-12 22:30N 33°58' E 130°58'5 9.8
2018-Feb-12 22:00N 33°58' E 131°03'0 0.3
2018-Feb-12 21:30N 33°58' E 131°04'0 0.0
2018-Feb-12 21:00N 33°58' E 131°04'0 0.0
2018-Feb-12 20:30N 33°58' E 131°04'0 0.0
2018-Feb-12 20:00N 33°58' E 131°04'0 0.0
2018-Feb-12 19:30N 33°58' E 131°04'0 0.0
2018-Feb-12 19:00N 33°58' E 131°04'0 0.0
2018-Feb-12 18:30N 33°58' E 131°04'0 0.0
2018-Feb-12 18:00N 33°58' E 131°04'0 0.0
2018-Feb-12 17:30N 33°58' E 131°04'0 0.0
2018-Feb-12 17:00N 33°58' E 131°04'0 0.0
2018-Feb-12 16:30N 33°58' E 131°04'0 0.0
2018-Feb-12 16:00N 33°58' E 131°04'0 0.0
2018-Feb-12 15:30N 33°58' E 131°04'0 0.0
2018-Feb-12 15:00N 33°58' E 131°04'0 0.0
2018-Feb-12 14:30N 33°58' E 131°04'0 0.0
2018-Feb-12 14:00N 33°58' E 131°04'0 0.0
2018-Feb-12 13:30N 33°58' E 131°04'0 0.0
2018-Feb-12 13:00N 33°58' E 131°04'0 0.0
2018-Feb-12 12:30N 33°58' E 131°04'0 0.0
2018-Feb-12 12:00N 33°58' E 131°04'0 0.0
2018-Feb-12 11:30N 33°58' E 131°04'0 0.0
2018-Feb-12 10:59N 33°58' E 131°04'0 0.0
2018-Feb-12 10:30N 33°58' E 131°04'0 0.0
2018-Feb-12 10:00N 33°58' E 131°04'0 0.0
2018-Feb-12 09:30N 33°58' E 131°04'0 0.0
2018-Feb-12 09:00N 33°58' E 131°04'0 0.0
2018-Feb-12 08:30N 33°58' E 131°04'0 0.0
2018-Feb-12 08:00N 33°58' E 131°04'0 0.0
2018-Feb-12 07:30N 33°58' E 131°04'0 0.0
2018-Feb-12 07:00N 33°58' E 131°04'0 0.0
2018-Feb-12 06:30N 33°58' E 131°04'0 0.0
2018-Feb-12 06:00N 33°58' E 131°04'0 0.0
2018-Feb-12 05:30N 33°58' E 131°04'0 0.0
2018-Feb-12 05:00N 33°58' E 131°04'0 0.0
2018-Feb-12 04:30N 33°58' E 131°04'0 0.0
2018-Feb-12 04:00N 33°58' E 131°04'0 0.0
2018-Feb-12 03:30N 33°58' E 131°04'0 0.0
2018-Feb-12 03:00N 33°58' E 131°04'0 0.0
2018-Feb-12 02:30N 33°58' E 131°04'2 4.8
2018-Feb-12 02:00N 33°57' E 131°06'4 8.5
2018-Feb-12 01:30N 33°55' E 131°10'2 3.0
2018-Feb-12 01:00N 33°56' E 131°11'0 0.0
2018-Feb-12 00:30N 33°56' E 131°11'0 0.0
2018-Feb-12 00:00N 33°56' E 131°11'0 0.0
2018-Feb-11 23:30N 33°56' E 131°11'0 0.0
2018-Feb-11 22:59N 33°56' E 131°11'0 0.0
2018-Feb-11 22:30N 33°56' E 131°11'1 3.0
2018-Feb-11 22:00N 33°55' E 131°11'4 7.0
2018-Feb-11 21:30N 33°56' E 131°07'510.0
2018-Feb-11 21:00N 33°58' E 131°02'4 9.0
2018-Feb-11 20:30N 33°57' E 130°57'1 1.8
2018-Feb-11 20:00N 33°57' E 130°56'0 0.0
2018-Feb-11 19:30N 33°57' E 130°56'0 0.0
2018-Feb-11 19:00N 33°57' E 130°56'0 0.0
2018-Feb-11 18:30N 33°57' E 130°56'0 0.0
2018-Feb-11 18:00N 33°57' E 130°56'0 0.0
2018-Feb-11 17:30N 33°57' E 130°56'0 0.0
2018-Feb-11 17:00N 33°57' E 130°56'0 0.0
2018-Feb-11 16:30N 33°57' E 130°56'0 0.0
2018-Feb-11 16:00N 33°57' E 130°56'0 0.0
2018-Feb-11 15:30N 33°57' E 130°56'0 0.0
2018-Feb-11 15:00N 33°57' E 130°56'0 0.0
2018-Feb-11 14:30N 33°57' E 130°56'0 0.0
2018-Feb-11 14:00N 33°57' E 130°56'0 0.0
2018-Feb-11 13:30N 33°57' E 130°56'0 0.0
2018-Feb-11 13:00N 33°57' E 130°56'0 0.0
2018-Feb-11 12:30N 33°57' E 130°56'0 0.0
2018-Feb-11 12:00N 33°57' E 130°56'0 0.0
2018-Feb-11 11:30N 33°57' E 130°56'0 0.0
2018-Feb-11 11:00N 33°57' E 130°56'0 0.0
2018-Feb-11 10:30N 33°57' E 130°56'0 0.0
2018-Feb-11 10:00N 33°57' E 130°56'0 0.0
2018-Feb-11 09:30N 33°57' E 130°56'0 0.0
2018-Feb-11 09:00N 33°57' E 130°56'0 0.0
2018-Feb-11 08:30N 33°57' E 130°56'0 0.0
2018-Feb-11 08:00N 33°57' E 130°56'0 0.0
2018-Feb-11 07:30N 33°57' E 130°56'0 0.0
2018-Feb-11 07:00N 33°57' E 130°56'0 0.0
2018-Feb-11 06:30N 33°57' E 130°56'0 0.0
2018-Feb-11 06:00N 33°57' E 130°56'0 0.0
2018-Feb-11 05:30N 33°57' E 130°56'0 0.0
2018-Feb-11 05:00N 33°57' E 130°56'0 0.0
2018-Feb-11 04:30N 33°57' E 130°56'0 0.0
2018-Feb-11 04:00N 33°57' E 130°56'0 0.0
2018-Feb-11 03:30N 33°57' E 130°56'0 0.0
2018-Feb-11 03:00N 33°57' E 130°56'0 0.0
2018-Feb-11 02:30N 33°57' E 130°56'0 0.0
2018-Feb-11 02:00N 33°57' E 130°56'0 0.0
2018-Feb-11 01:30N 33°57' E 130°56'0 0.0
2018-Feb-11 01:00N 33°57' E 130°56'0 0.0
2018-Feb-11 00:30N 33°57' E 130°56'0 0.0
2018-Feb-11 00:00N 33°57' E 130°56'0 0.0
2018-Feb-10 23:30N 33°57' E 130°56'0 0.0
2018-Feb-10 23:00N 33°57' E 130°56'0 0.0
2018-Feb-10 22:30N 33°57' E 130°56'0 0.0
2018-Feb-10 22:00N 33°57' E 130°56'4 7.4
2018-Feb-10 21:30N 33°59' E 130°59'4 7.8
2018-Feb-10 21:00N 33°58' E 131°04'0 0.1
2018-Feb-10 20:30N 33°58' E 131°04'0 0.0
2018-Feb-10 20:01N 33°58' E 131°04'0 0.0
2018-Feb-10 19:30N 33°58' E 131°04'0 0.0
2018-Feb-10 19:01N 33°58' E 131°04'0 0.0
2018-Feb-10 18:30N 33°58' E 131°04'0 0.0
2018-Feb-10 18:00N 33°58' E 131°04'0 0.0
2018-Feb-10 17:30N 33°58' E 131°04'0 0.0
2018-Feb-10 17:00N 33°58' E 131°04'0 0.0
2018-Feb-10 16:30N 33°58' E 131°04'0 0.0
2018-Feb-10 16:00N 33°58' E 131°04'0 0.0
2018-Feb-10 15:30N 33°58' E 131°04'  

Dump ship's entire track history